Time;durP1;ratioP1;P1;durP2;ratioP2;P2;SDS_P1;SDS_P2;PMS_P1;PMS_P2;Temp;Humidity;BMP_temperature;BMP_pressure;BME280_temperature;BME280_humidity;BME280_pressure;Samples;Min_cycle;Max_cycle;Signal;HPM_P1;HPM_P2
2022/10/16 00:00:41;;;;;;;7.90;6.00;;;;;;;10.76;100.00;99477.15;100619;1334;23337;-35
2022/10/16 00:03:08;;;;;;;9.30;6.80;;;;;;;10.77;100.00;99476.50;100681;1342;22585;-34
2022/10/16 00:05:38;;;;;;;9.70;7.40;;;;;;;10.73;100.00;99479.04;100588;1333;22748;-32
2022/10/16 00:08:04;;;;;;;12.50;8.80;;;;;;;10.69;100.00;99481.92;100273;1335;624879;-32
2022/10/16 00:10:30;;;;;;;9.60;7.50;;;;;;;10.68;100.00;99481.22;100701;1325;23124;-33
2022/10/16 00:12:55;;;;;;;9.30;6.20;;;;;;;10.70;100.00;99483.09;100642;1334;23102;-35
2022/10/16 00:15:21;;;;;;;10.50;7.30;;;;;;;10.72;100.00;99494.68;100560;1342;22512;-35
2022/10/16 00:17:47;;;;;;;10.90;6.70;;;;;;;10.73;100.00;99497.92;100597;1342;24494;-32
2022/10/16 00:20:14;;;;;;;10.00;8.90;;;;;;;10.76;100.00;99498.27;100470;1343;25421;-32
2022/10/16 00:22:40;;;;;;;11.50;7.90;;;;;;;10.78;100.00;99499.40;100653;1341;22865;-36
2022/10/16 00:25:06;;;;;;;17.40;11.90;;;;;;;10.73;100.00;99500.00;100603;1340;24449;-32
2022/10/16 00:27:31;;;;;;;18.30;10.10;;;;;;;10.80;100.00;99514.04;100382;1345;23088;-34
2022/10/16 00:29:57;;;;;;;19.80;12.80;;;;;;;10.84;100.00;99514.85;100614;1342;24379;-36
2022/10/16 00:32:22;;;;;;;;;;;;;;;10.90;100.00;99514.70;100645;1342;22959;-37
2022/10/16 00:34:48;;;;;;;18.10;10.40;;;;;;;10.92;100.00;99508.77;100649;1334;24379;-33
2022/10/16 00:37:13;;;;;;;13.30;8.60;;;;;;;10.88;100.00;99506.54;100639;1342;24312;-34
2022/10/16 00:39:39;;;;;;;11.50;8.00;;;;;;;10.87;100.00;99506.70;100694;1334;23242;-37
2022/10/16 00:42:05;;;;;;;17.00;11.80;;;;;;;10.92;100.00;99515.73;100485;1342;24494;-34
2022/10/16 00:44:37;;;;;;;17.30;11.40;;;;;;;10.96;100.00;99521.89;100604;1337;23228;-34
2022/10/16 00:47:03;;;;;;;20.30;14.00;;;;;;;10.95;100.00;99522.50;100692;1340;22861;-35
2022/10/16 00:49:28;;;;;;;17.40;11.40;;;;;;;10.96;100.00;99524.74;100451;1341;24387;-34
2022/10/16 00:51:54;;;;;;;24.40;14.40;;;;;;;10.98;100.00;99525.75;100594;1334;25374;-32
2022/10/16 00:54:21;;;;;;;25.70;13.40;;;;;;;11.02;100.00;99528.66;100427;1344;25058;-35
2022/10/16 00:56:47;;;;;;;19.70;10.90;;;;;;;11.04;100.00;99528.55;100650;1341;22771;-31
2022/10/16 00:59:18;;;;;;;26.20;13.60;;;;;;;11.01;100.00;99524.75;100647;1342;22514;-35
2022/10/16 01:01:43;;;;;;;22.10;14.10;;;;;;;11.01;100.00;99524.77;100657;1341;24340;-41
2022/10/16 01:04:09;;;;;;;21.70;13.50;;;;;;;10.99;100.00;99526.42;100644;1332;23232;-36
2022/10/16 01:06:40;;;;;;;18.30;12.40;;;;;;;11.03;100.00;99534.75;100618;1334;22910;-36
2022/10/16 01:09:09;;;;;;;20.90;13.90;;;;;;;11.05;100.00;99537.73;100652;1342;24290;-36
2022/10/16 01:11:42;;;;;;;21.70;11.50;;;;;;;11.08;100.00;99538.59;100736;1341;23104;-36
2022/10/16 01:14:15;;;;;;;21.60;14.00;;;;;;;11.11;100.00;99541.80;100651;1334;24852;-36
2022/10/16 01:16:44;;;;;;;29.10;15.60;;;;;;;11.18;100.00;99542.10;100555;1342;24684;-33
2022/10/16 01:19:11;;;;;;;25.70;14.30;;;;;;;11.22;100.00;99548.63;100653;1340;24297;-33
2022/10/16 01:21:39;;;;;;;29.20;18.20;;;;;;;11.26;100.00;99551.03;100699;1341;22735;-36
2022/10/16 01:24:09;;;;;;;31.70;17.90;;;;;;;11.29;100.00;99551.80;100502;1342;24301;-36
2022/10/16 01:26:35;;;;;;;24.90;16.80;;;;;;;11.30;100.00;99554.73;100657;1341;24456;-35
2022/10/16 01:29:07;;;;;;;25.40;15.60;;;;;;;11.35;100.00;99550.23;100636;1335;23006;-32
2022/10/16 01:31:37;;;;;;;22.50;15.20;;;;;;;11.37;100.00;99546.73;100515;1342;23912;-32
2022/10/16 01:34:05;;;;;;;24.30;12.00;;;;;;;11.42;100.00;99539.05;100611;1340;22881;-37
2022/10/16 01:36:36;;;;;;;32.70;19.50;;;;;;;11.44;100.00;99540.06;100668;1340;23316;-33
2022/10/16 01:39:02;;;;;;;22.70;14.70;;;;;;;11.50;100.00;99537.98;100643;1341;24373;-33
2022/10/16 01:41:32;;;;;;;23.10;14.00;;;;;;;11.59;100.00;99536.17;100611;1342;22885;-36
2022/10/16 01:44:02;;;;;;;26.50;16.50;;;;;;;11.63;100.00;99535.39;100649;1334;22869;-33
2022/10/16 01:46:28;;;;;;;19.10;13.30;;;;;;;11.69;100.00;99537.12;100659;1337;23672;-33
2022/10/16 01:48:53;;;;;;;23.80;13.30;;;;;;;11.66;100.00;99523.86;100589;1335;23234;-33
2022/10/16 01:51:19;;;;;;;24.80;15.70;;;;;;;11.69;100.00;99529.13;100675;1340;22751;-36
2022/10/16 01:53:47;;;;;;;26.80;14.30;;;;;;;11.72;100.00;99526.73;100621;1342;23238;-33
2022/10/16 01:56:13;;;;;;;24.00;14.20;;;;;;;11.75;100.00;99525.18;100646;1341;22914;-33
2022/10/16 01:58:42;;;;;;;34.80;15.80;;;;;;;11.80;100.00;99525.33;100686;1334;22748;-36
2022/10/16 02:01:08;;;;;;;29.70;17.40;;;;;;;11.81;100.00;99520.81;100703;1324;24779;-33
2022/10/16 02:03:34;;;;;;;23.80;14.70;;;;;;;11.90;100.00;99520.13;100641;1342;24234;-33
2022/10/16 02:06:00;;;;;;;30.60;15.70;;;;;;;11.96;100.00;99517.54;100758;1341;24476;-36
2022/10/16 02:08:28;;;;;;;22.50;14.30;;;;;;;11.96;100.00;99516.96;100664;1334;23166;-33
2022/10/16 02:10:56;;;;;;;27.60;14.80;;;;;;;11.99;100.00;99514.52;100656;1342;25300;-36
2022/10/16 02:13:23;;;;;;;24.50;14.10;;;;;;;11.99;100.00;99516.77;100765;1340;22885;-34
2022/10/16 02:15:48;;;;;;;33.80;19.10;;;;;;;12.08;100.00;99517.98;100639;1340;23216;-36
2022/10/16 02:18:14;;;;;;;28.70;19.20;;;;;;;12.08;100.00;99524.13;100602;1334;22700;-37
2022/10/16 02:20:48;;;;;;;30.40;15.50;;;;;;;12.12;100.00;99519.41;100620;1341;22905;-36
2022/10/16 02:23:16;;;;;;;35.00;18.20;;;;;;;12.15;100.00;99517.27;100660;1342;22616;-36
2022/10/16 02:25:42;;;;;;;36.60;16.40;;;;;;;12.18;100.00;99518.59;100670;1334;23180;-37
2022/10/16 02:28:08;;;;;;;29.10;16.90;;;;;;;12.17;100.00;99518.67;100550;1337;23035;-33
2022/10/16 02:30:38;;;;;;;31.00;15.70;;;;;;;12.17;100.00;99520.84;100589;1340;23212;-34
2022/10/16 02:33:05;;;;;;;21.00;13.20;;;;;;;12.15;100.00;99519.13;100658;1342;24439;-36
2022/10/16 02:35:30;;;;;;;23.00;13.00;;;;;;;12.20;100.00;99513.13;100632;1334;23122;-34
2022/10/16 02:37:56;;;;;;;30.20;18.00;;;;;;;12.23;100.00;99515.58;100588;1340;23102;-36
2022/10/16 02:40:22;;;;;;;28.90;16.50;;;;;;;12.27;100.00;99513.92;100487;1341;22926;-36
2022/10/16 02:42:50;;;;;;;22.70;16.00;;;;;;;12.31;100.00;99521.39;100649;1342;24475;-36
2022/10/16 02:45:15;;;;;;;24.30;13.80;;;;;;;12.31;100.00;99521.06;100633;1340;23256;-34
2022/10/16 02:47:41;;;;;;;34.30;17.30;;;;;;;12.32;100.00;99523.14;100654;1341;22875;-34
2022/10/16 02:50:07;;;;;;;28.40;15.20;;;;;;;12.33;100.00;99519.95;100651;1340;24349;-34
2022/10/16 02:52:32;;;;;;;36.60;16.90;;;;;;;12.39;100.00;99525.13;100615;1334;22860;-36
2022/10/16 02:54:58;;;;;;;30.60;15.20;;;;;;;12.40;100.00;99520.86;100650;1341;23109;-33
2022/10/16 02:57:24;;;;;;;23.90;14.80;;;;;;;12.47;100.00;99519.67;100512;1342;22526;-36
2022/10/16 02:59:49;;;;;;;29.60;17.00;;;;;;;12.50;100.00;99523.61;100653;1334;24395;-33
2022/10/16 03:02:16;;;;;;;27.70;15.20;;;;;;;12.51;100.00;99527.18;100685;1341;24300;-37
2022/10/16 03:04:41;;;;;;;24.30;14.40;;;;;;;12.51;100.00;99526.17;100655;1341;22872;-34
2022/10/16 03:07:07;;;;;;;16.10;11.00;;;;;;;12.51;100.00;99521.50;100647;1334;23220;-37
2022/10/16 03:09:33;;;;;;;23.30;14.20;;;;;;;12.52;100.00;99526.27;100629;1334;24475;-37
2022/10/16 03:11:59;;;;;;;23.70;14.80;;;;;;;12.53;100.00;99519.02;100638;1330;23249;-34
2022/10/16 03:14:24;;;;;;;27.80;13.60;;;;;;;12.54;100.00;99511.89;100612;1340;22871;-37
2022/10/16 03:16:50;;;;;;;20.00;12.50;;;;;;;12.52;100.00;99512.77;100647;1340;22881;-34
2022/10/16 03:19:17;;;;;;;15.70;11.20;;;;;;;12.55;100.00;99514.83;100624;1342;24430;-37
2022/10/16 03:21:42;;;;;;;19.20;13.10;;;;;;;12.54;100.00;99511.89;100716;1341;22875;-37
2022/10/16 03:24:08;;;;;;;22.40;13.60;;;;;;;12.51;100.00;99515.91;100664;1341;24491;-34
2022/10/16 03:26:33;;;;;;;21.30;12.30;;;;;;;12.50;100.00;99515.90;100494;1342;22874;-37
2022/10/16 03:28:59;;;;;;;20.00;13.50;;;;;;;12.58;100.00;99524.08;100625;1342;24340;-35
2022/10/16 03:31:24;;;;;;;24.00;13.10;;;;;;;12.64;100.00;99515.92;100493;1342;25354;-36
2022/10/16 03:33:50;;;;;;;20.20;11.20;;;;;;;12.60;100.00;99505.66;100467;1334;25018;-36
2022/10/16 03:36:15;;;;;;;14.80;11.20;;;;;;;12.58;100.00;99500.79;100599;1342;25229;-33
2022/10/16 03:38:41;;;;;;;14.10;11.50;;;;;;;12.63;100.00;99504.84;100608;1334;26489;-36
2022/10/16 03:41:07;;;;;;;26.70;15.20;;;;;;;12.66;100.00;99510.64;100569;1337;22524;-34
2022/10/16 03:43:33;;;;;;;22.30;13.20;;;;;;;12.65;100.00;99506.70;100611;1341;22748;-36
2022/10/16 03:45:58;;;;;;;19.80;14.50;;;;;;;12.62;100.00;99504.30;100663;1340;24475;-36
2022/10/16 03:48:24;;;;;;;21.10;13.50;;;;;;;12.61;100.00;99512.05;100631;1334;24346;-36
2022/10/16 03:50:51;;;;;;;27.60;12.80;;;;;;;12.54;100.00;99513.52;100712;1340;23149;-35
2022/10/16 03:53:17;;;;;;;22.90;12.10;;;;;;;12.50;100.00;99513.99;100550;1342;22537;-37
2022/10/16 03:55:43;;;;;;;15.90;11.50;;;;;;;12.54;100.00;99514.71;100682;1342;23263;-37
2022/10/16 03:58:08;;;;;;;22.00;14.70;;;;;;;12.56;100.00;99510.56;100616;1343;24369;-37
2022/10/16 04:00:34;;;;;;;20.00;12.10;;;;;;;12.55;100.00;99515.70;100504;1342;22751;-37
2022/10/16 04:03:00;;;;;;;21.00;13.90;;;;;;;12.53;100.00;99519.77;100509;1334;23334;-34
2022/10/16 04:05:26;;;;;;;16.30;10.20;;;;;;;12.51;100.00;99518.92;100630;1325;22883;-37
2022/10/16 04:07:52;;;;;;;17.20;12.60;;;;;;;12.50;100.00;99518.19;100636;1341;23088;-34
2022/10/16 04:10:18;;;;;;;17.10;13.00;;;;;;;12.54;100.00;99515.86;100610;1343;23049;-37
2022/10/16 04:12:44;;;;;;;18.50;12.80;;;;;;;12.53;100.00;99520.21;100524;1342;24435;-34
2022/10/16 04:15:10;;;;;;;25.30;14.50;;;;;;;12.52;100.00;99525.42;100500;1334;22761;-37
2022/10/16 04:17:35;;;;;;;17.00;12.60;;;;;;;12.50;100.00;99520.17;100610;1342;22734;-34
2022/10/16 04:20:01;;;;;;;18.40;12.70;;;;;;;12.53;100.00;99523.33;100651;1342;24359;-34
2022/10/16 04:22:26;;;;;;;16.30;11.40;;;;;;;12.57;100.00;99526.22;100615;1341;24489;-37
2022/10/16 04:24:52;;;;;;;17.90;12.90;;;;;;;12.52;100.00;99527.21;100663;1340;24494;-36
2022/10/16 04:27:17;;;;;;;31.30;13.10;;;;;;;12.49;100.00;99522.58;100638;1336;24484;-33
2022/10/16 04:29:43;;;;;;;18.70;11.50;;;;;;;12.47;100.00;99518.18;100635;1340;22995;-36
2022/10/16 04:32:09;;;;;;;24.00;12.40;;;;;;;12.44;100.00;99519.92;100649;1334;23261;-34
2022/10/16 04:34:34;;;;;;;19.80;13.40;;;;;;;12.46;100.00;99521.04;100641;1335;24382;-34
2022/10/16 04:37:00;;;;;;;13.20;9.50;;;;;;;12.41;100.00;99521.33;100665;1341;22516;-34
2022/10/16 04:39:25;;;;;;;20.30;15.30;;;;;;;12.40;100.00;99522.83;100670;1342;23093;-33
2022/10/16 04:41:51;;;;;;;29.20;12.10;;;;;;;12.44;100.00;99528.83;100492;1342;22891;-38
2022/10/16 04:44:17;;;;;;;19.50;12.90;;;;;;;12.42;100.00;99531.14;100640;1334;24478;-37
2022/10/16 04:46:44;;;;;;;20.80;14.30;;;;;;;12.39;100.00;99536.98;100495;1348;24359;-33
2022/10/16 04:49:10;;;;;;;20.30;14.40;;;;;;;12.31;100.00;99541.48;100580;1334;24379;-34
2022/10/16 04:51:38;;;;;;;21.20;14.50;;;;;;;12.31;100.00;99547.04;100681;1335;22786;-33
2022/10/16 04:54:04;;;;;;;26.20;13.80;;;;;;;12.26;100.00;99546.58;100627;1343;24382;-34
2022/10/16 04:56:30;;;;;;;15.20;10.10;;;;;;;12.22;100.00;99548.84;100659;1340;22514;-34
2022/10/16 04:58:56;;;;;;;23.20;14.00;;;;;;;12.27;100.00;99548.61;100589;1333;23099;-34
2022/10/16 05:01:22;;;;;;;21.90;15.60;;;;;;;12.25;100.00;99548.67;100357;1333;23223;-38
2022/10/16 05:03:47;;;;;;;28.20;16.00;;;;;;;12.23;100.00;99551.45;100631;1340;23248;-34
2022/10/16 05:06:13;;;;;;;18.50;12.90;;;;;;;12.19;100.00;99554.34;100625;1341;22560;-37
2022/10/16 05:08:38;;;;;;;26.60;14.70;;;;;;;12.21;100.00;99552.23;100655;1339;23127;-34
2022/10/16 05:11:04;;;;;;;21.70;13.10;;;;;;;12.26;100.00;99558.95;100612;1345;23672;-34
2022/10/16 05:13:29;;;;;;;24.10;17.20;;;;;;;12.28;100.00;99565.09;100645;1333;24282;-33
2022/10/16 05:15:55;;;;;;;27.40;18.40;;;;;;;12.30;100.00;99569.58;100621;1343;22504;-33
2022/10/16 05:18:21;;;;;;;24.70;14.70;;;;;;;12.30;100.00;99567.38;100637;1337;22748;-33
2022/10/16 05:20:46;;;;;;;29.20;17.80;;;;;;;12.32;100.00;99568.05;100595;1336;22974;-37
2022/10/16 05:23:11;;;;;;;19.60;14.40;;;;;;;12.32;100.00;99569.30;100446;1340;23034;-33
2022/10/16 05:25:37;;;;;;;27.10;13.90;;;;;;;12.32;100.00;99572.11;100600;1339;22890;-36
2022/10/16 05:28:03;;;;;;;29.50;19.60;;;;;;;12.31;100.00;99581.42;100420;1343;23294;-33
2022/10/16 05:30:28;;;;;;;21.80;12.20;;;;;;;12.30;100.00;99594.64;100686;1340;23047;-38
2022/10/16 05:32:54;;;;;;;21.60;13.80;;;;;;;12.29;100.00;99596.45;100664;1338;23360;-33
2022/10/16 05:35:20;;;;;;;29.70;15.20;;;;;;;12.34;100.00;99587.36;100604;1341;22738;-35
2022/10/16 05:37:45;;;;;;;17.80;11.50;;;;;;;12.38;100.00;99582.11;100630;1334;24344;-33
2022/10/16 05:40:12;;;;;;;27.40;15.30;;;;;;;12.41;100.00;99579.46;100695;1341;22793;-33
2022/10/16 05:42:38;;;;;;;24.50;14.80;;;;;;;12.44;100.00;99580.09;100677;1341;22800;-33
2022/10/16 05:45:11;;;;;;;32.00;18.50;;;;;;;12.47;100.00;99578.73;100519;1344;24378;-35
2022/10/16 05:47:37;;;;;;;19.50;13.70;;;;;;;12.47;100.00;99581.25;100584;1345;24374;-33
2022/10/16 05:50:04;;;;;;;29.90;14.30;;;;;;;12.50;100.00;99583.00;100685;1343;23062;-34
2022/10/16 05:52:30;;;;;;;24.80;16.30;;;;;;;12.54;100.00;99590.63;100660;1341;22777;-33
2022/10/16 05:54:55;;;;;;;29.60;17.50;;;;;;;12.51;100.00;99592.70;100645;1341;22744;-33
2022/10/16 05:57:21;;;;;;;42.80;18.20;;;;;;;12.54;100.00;99590.42;100646;1342;23223;-34
2022/10/16 05:59:46;;;;;;;36.80;19.30;;;;;;;12.58;100.00;99597.39;100697;1341;24384;-36
2022/10/16 06:02:13;;;;;;;35.00;18.10;;;;;;;12.60;100.00;99598.86;100426;1338;22760;-36
2022/10/16 06:04:38;;;;;;;10.30;7.50;;;;;;;12.62;100.00;99603.13;100634;1337;23337;-36
2022/10/16 06:07:04;;;;;;;27.00;16.40;;;;;;;12.72;100.00;99605.30;100674;1334;22507;-32
2022/10/16 06:09:29;;;;;;;19.90;14.80;;;;;;;12.80;100.00;99603.45;100627;1345;23334;-38
2022/10/16 06:11:55;;;;;;;28.30;18.00;;;;;;;12.79;100.00;99602.40;100458;1342;22874;-36
2022/10/16 06:14:20;;;;;;;26.00;17.00;;;;;;;12.86;100.00;99602.70;100585;1330;24858;-36
2022/10/16 06:16:46;;;;;;;;;;;;;;;12.90;100.00;99603.08;100626;1341;23071;-33
2022/10/16 06:19:12;;;;;;;33.90;18.90;;;;;;;12.93;100.00;99597.95;100629;1345;24494;-33
2022/10/16 06:21:37;;;;;;;24.80;16.70;;;;;;;12.97;100.00;99606.94;100666;1343;22757;-38
2022/10/16 06:24:03;;;;;;;26.60;18.60;;;;;;;12.98;100.00;99610.41;100620;1337;23113;-37
2022/10/16 06:26:29;;;;;;;15.60;8.70;;;;;;;13.00;100.00;99613.24;100622;1345;23098;-34
2022/10/16 06:28:56;;;;;;;28.00;18.60;;;;;;;13.06;100.00;99609.44;100695;1343;24404;-34
2022/10/16 06:31:21;;;;;;;23.00;16.80;;;;;;;13.16;100.00;99613.42;100684;1334;22713;-37
2022/10/16 06:33:50;;;;;;;20.50;15.20;;;;;;;13.22;100.00;99611.39;100648;1345;22885;-37
2022/10/16 06:36:16;;;;;;;17.10;14.10;;;;;;;13.23;100.00;99614.41;100670;1337;22790;-36
2022/10/16 06:38:42;;;;;;;31.80;19.10;;;;;;;13.25;100.00;99611.20;100667;1337;22769;-34
2022/10/16 06:41:10;;;;;;;29.40;19.00;;;;;;;13.34;100.00;99604.25;100687;1345;24351;-37
2022/10/16 06:43:35;;;;;;;20.90;13.80;;;;;;;13.39;100.00;99610.02;100618;1341;22947;-37
2022/10/16 06:46:01;;;;;;;29.90;19.00;;;;;;;13.46;100.00;99613.70;100603;1343;22744;-37
2022/10/16 06:48:27;;;;;;;29.50;15.70;;;;;;;13.58;100.00;99617.09;100672;1341;22893;-34
2022/10/16 06:50:59;;;;;;;30.20;20.30;;;;;;;13.61;100.00;99623.09;100786;1340;22884;-35
2022/10/16 06:53:25;;;;;;;28.60;18.90;;;;;;;13.71;100.00;99618.76;100655;1331;25384;-35
2022/10/16 06:55:51;;;;;;;25.00;18.60;;;;;;;13.73;100.00;99617.27;100695;1338;24409;-37
2022/10/16 06:58:17;;;;;;;19.20;14.30;;;;;;;13.82;100.00;99621.77;100541;1342;22815;-37
2022/10/16 07:00:42;;;;;;;20.90;14.80;;;;;;;13.88;100.00;99623.98;100630;1334;22500;-34
2022/10/16 07:03:08;;;;;;;20.20;16.30;;;;;;;13.91;100.00;99628.48;100643;1334;24528;-35
2022/10/16 07:05:39;;;;;;;26.40;18.30;;;;;;;13.88;100.00;99632.13;100631;1325;23237;-37
2022/10/16 07:08:05;;;;;;;23.90;17.20;;;;;;;13.90;100.00;99639.89;100681;1331;24357;-37
2022/10/16 07:10:32;;;;;;;26.30;16.90;;;;;;;13.90;100.00;99640.05;100647;1345;23245;-34
2022/10/16 07:12:59;;;;;;;24.30;18.20;;;;;;;13.90;100.00;99640.04;100506;1343;23048;-37
2022/10/16 07:15:25;;;;;;;23.70;16.50;;;;;;;13.96;100.00;99645.08;100628;1345;22901;-33
2022/10/16 07:17:51;;;;;;;30.10;19.20;;;;;;;13.99;100.00;99653.53;100689;1334;22761;-35
2022/10/16 07:20:16;;;;;;;25.30;18.10;;;;;;;14.04;100.00;99646.86;100423;1336;22903;-36
2022/10/16 07:22:42;;;;;;;26.70;14.60;;;;;;;14.02;100.00;99641.80;100481;1346;22747;-32
2022/10/16 07:25:08;;;;;;;25.00;17.90;;;;;;;14.09;100.00;99644.69;100619;1342;23007;-33
2022/10/16 07:27:34;;;;;;;26.60;15.50;;;;;;;14.04;100.00;99644.63;100665;1340;22754;-32
2022/10/16 07:30:00;;;;;;;27.00;15.90;;;;;;;14.02;100.00;99649.24;100620;1341;23121;-37
2022/10/16 07:32:26;;;;;;;28.00;18.30;;;;;;;14.00;100.00;99649.23;100660;1337;23053;-36
2022/10/16 07:34:52;;;;;;;27.10;18.00;;;;;;;13.97;100.00;99644.57;100678;1345;22748;-34
2022/10/16 07:37:20;;;;;;;31.10;19.10;;;;;;;14.00;100.00;99654.86;100764;1341;22842;-33
2022/10/16 07:39:46;;;;;;;24.80;16.20;;;;;;;14.01;100.00;99651.11;100586;1345;24293;-36
2022/10/16 07:42:11;;;;;;;22.20;14.60;;;;;;;14.02;100.00;99654.80;100608;1341;22608;-34
2022/10/16 07:44:37;;;;;;;22.50;15.30;;;;;;;14.12;100.00;99656.11;100489;1345;22496;-34
2022/10/16 07:47:02;;;;;;;20.10;15.10;;;;;;;14.24;100.00;99648.92;100530;1334;22777;-36
2022/10/16 07:49:28;;;;;;;29.30;17.00;;;;;;;14.28;100.00;99648.16;100635;1343;24300;-36
2022/10/16 07:51:54;;;;;;;27.20;13.20;;;;;;;14.40;100.00;99653.82;100661;1339;23145;-34
2022/10/16 07:54:20;;;;;;;23.20;16.30;;;;;;;14.52;100.00;99657.28;100489;1348;23924;-33
2022/10/16 07:56:45;;;;;;;21.40;13.90;;;;;;;14.60;100.00;99662.53;100405;1346;22877;-36
2022/10/16 07:59:11;;;;;;;25.60;15.10;;;;;;;14.72;100.00;99665.50;100610;1335;24263;-36
2022/10/16 08:01:37;;;;;;;40.40;16.00;;;;;;;14.77;100.00;99668.25;100571;1324;22512;-36
2022/10/16 08:04:02;;;;;;;32.50;15.00;;;;;;;14.82;100.00;99670.76;100616;1343;23879;-40
2022/10/16 08:06:29;;;;;;;23.20;12.50;;;;;;;14.86;100.00;99672.82;100702;1337;22761;-33
2022/10/16 08:08:55;;;;;;;17.80;13.80;;;;;;;14.92;100.00;99677.64;100410;1342;389227;-36
2022/10/16 08:11:21;;;;;;;24.50;15.30;;;;;;;14.94;100.00;99681.66;100664;1341;25577;-36
2022/10/16 08:13:47;;;;;;;19.70;15.30;;;;;;;14.92;100.00;99687.55;100641;1337;22506;-36
2022/10/16 08:16:12;;;;;;;24.00;14.60;;;;;;;14.95;100.00;99691.91;100600;1341;22519;-37
2022/10/16 08:18:39;;;;;;;21.20;13.10;;;;;;;14.92;100.00;99694.41;100634;1340;22786;-36
2022/10/16 08:21:07;;;;;;;20.20;12.60;;;;;;;14.96;100.00;99692.70;100584;1343;25692;-35
2022/10/16 08:23:33;;;;;;;20.00;14.20;;;;;;;15.01;100.00;99692.78;100569;1334;22518;-36
2022/10/16 08:26:03;;;;;;;19.40;15.00;;;;;;;15.01;100.00;99692.45;100640;1342;22760;-35
2022/10/16 08:28:28;;;;;;;19.00;14.30;;;;;;;14.98;100.00;99692.76;100615;1342;22761;-36
2022/10/16 08:31:03;;;;;;;16.20;12.70;;;;;;;14.93;100.00;99700.83;100656;1342;22888;-36
2022/10/16 08:33:29;;;;;;;13.90;10.90;;;;;;;14.88;100.00;99700.85;100642;1342;22748;-38
2022/10/16 08:35:55;;;;;;;15.60;11.50;;;;;;;14.91;100.00;99700.20;100500;1342;23090;-35
2022/10/16 08:38:20;;;;;;;14.20;12.10;;;;;;;14.92;100.00;99701.23;100658;1341;24903;-33
2022/10/16 08:40:46;;;;;;;13.10;11.00;;;;;;;14.93;100.00;99699.65;100600;1340;22871;-32
2022/10/16 08:43:19;;;;;;;13.70;10.10;;;;;;;14.89;100.00;99701.02;100620;1341;24325;-35
2022/10/16 08:45:51;;;;;;;11.80;10.30;;;;;;;14.93;100.00;99702.73;100664;1334;23111;-35
2022/10/16 08:48:21;;;;;;;13.50;10.40;;;;;;;15.01;100.00;99706.44;100682;1343;22518;-32
2022/10/16 08:50:47;;;;;;;13.80;9.30;;;;;;;15.09;100.00;99706.33;100702;1340;24233;-33
2022/10/16 08:53:18;;;;;;;21.30;10.30;;;;;;;15.20;100.00;99701.08;100668;1335;22508;-33
2022/10/16 08:55:46;;;;;;;15.60;10.00;;;;;;;15.34;100.00;99699.98;100564;1342;23326;-36
2022/10/16 08:58:13;;;;;;;14.90;11.30;;;;;;;15.41;100.00;99698.98;100687;1342;22525;-34
2022/10/16 09:00:39;;;;;;;13.50;11.20;;;;;;;15.64;100.00;99696.04;100680;1342;22750;-36
2022/10/16 09:03:12;;;;;;;14.40;10.90;;;;;;;15.64;100.00;99690.45;100692;1337;22917;-34
2022/10/16 09:05:47;;;;;;;10.80;8.30;;;;;;;15.69;100.00;99695.17;100566;1334;22552;-34
2022/10/16 09:08:18;;;;;;;15.00;10.40;;;;;;;15.87;99.91;99696.16;100652;1340;24295;-37
2022/10/16 09:10:49;;;;;;;15.00;10.40;;;;;;;15.94;98.72;99699.36;100587;1342;24427;-35
2022/10/16 09:13:21;;;;;;;21.80;11.90;;;;;;;15.95;99.11;99699.02;100634;1338;22883;-37
2022/10/16 09:16:09;;;;;;;10.60;9.40;;;;;;;16.01;98.46;99699.33;100687;1341;22519;-37
2022/10/16 09:18:35;;;;;;;16.40;8.20;;;;;;;16.11;97.93;99704.92;100539;1342;22936;-35
2022/10/16 09:21:04;;;;;;;12.30;10.60;;;;;;;16.26;96.68;99702.77;100603;1342;22877;-34
2022/10/16 09:23:31;;;;;;;9.80;7.40;;;;;;;16.24;96.06;99705.02;100661;1334;24853;-35
2022/10/16 09:25:57;;;;;;;12.90;10.40;;;;;;;16.29;96.78;99702.15;100685;1340;22715;-37
2022/10/16 09:28:23;;;;;;;8.80;7.70;;;;;;;16.46;94.22;99704.11;100641;1337;22902;-35
2022/10/16 09:30:49;;;;;;;14.10;10.00;;;;;;;16.46;93.48;99702.10;100693;1341;22874;-34
2022/10/16 09:33:15;;;;;;;12.00;7.70;;;;;;;16.45;94.38;99698.86;100603;1341;22870;-36
2022/10/16 09:35:43;;;;;;;11.00;7.80;;;;;;;16.63;93.30;99701.48;100532;1342;23011;-34
2022/10/16 09:38:09;;;;;;;15.70;8.90;;;;;;;16.68;92.93;99704.44;100693;1337;24310;-37
2022/10/16 09:40:37;;;;;;;19.30;9.50;;;;;;;16.73;92.21;99708.31;100627;1342;22865;-37
2022/10/16 09:43:06;;;;;;;11.70;9.50;;;;;;;16.77;92.07;99705.44;100654;1342;22552;-35
2022/10/16 09:45:32;;;;;;;9.70;8.10;;;;;;;16.87;91.45;99707.23;100787;1324;23087;-36
2022/10/16 09:47:58;;;;;;;10.60;7.70;;;;;;;16.90;91.81;99704.39;100495;1337;22746;-35
2022/10/16 09:50:26;;;;;;;13.50;9.30;;;;;;;17.06;91.29;99708.49;100652;1342;24300;-33
2022/10/16 09:53:04;;;;;;;10.60;8.30;;;;;;;17.19;90.88;99713.70;100647;1331;26021;-34
2022/10/16 09:55:29;;;;;;;7.10;6.40;;;;;;;17.36;89.15;99709.42;100571;1341;24260;-36
2022/10/16 09:57:55;;;;;;;12.40;9.20;;;;;;;17.50;88.33;99707.98;100643;1342;23219;-34
2022/10/16 10:00:22;;;;;;;13.30;10.10;;;;;;;17.59;88.12;99712.64;100660;1342;25700;-36
2022/10/16 10:02:48;;;;;;;8.70;7.40;;;;;;;17.74;87.77;99709.10;100658;1335;24378;-34
2022/10/16 10:05:19;;;;;;;8.30;6.90;;;;;;;17.92;87.34;99713.07;100525;1334;23120;-35
2022/10/16 10:07:46;;;;;;;8.10;7.30;;;;;;;18.00;87.27;99716.23;100550;1342;24229;-35
2022/10/16 10:10:19;;;;;;;8.80;7.20;;;;;;;18.17;85.15;99723.46;100643;1341;24394;-37
2022/10/16 10:12:45;;;;;;;9.20;6.00;;;;;;;18.21;85.66;99728.11;100665;1342;25275;-37
2022/10/16 10:15:11;;;;;;;8.30;7.40;;;;;;;18.28;85.45;99731.36;100663;1340;24359;-37
2022/10/16 10:17:44;;;;;;;11.90;7.40;;;;;;;18.39;85.70;99733.57;100696;1342;24859;-34
2022/10/16 10:20:16;;;;;;;14.50;7.20;;;;;;;18.59;84.00;99726.98;100675;1342;24295;-35
2022/10/16 10:22:45;;;;;;;9.30;6.70;;;;;;;18.54;83.25;99732.10;100625;1334;22511;-37
2022/10/16 10:25:25;;;;;;;8.30;6.50;;;;;;;18.64;84.31;99728.26;100732;1342;25495;-37
2022/10/16 10:27:57;;;;;;;9.60;7.70;;;;;;;18.93;83.19;99726.90;100628;1334;24425;-38
2022/10/16 10:30:23;;;;;;;8.20;6.90;;;;;;;18.93;82.10;99724.48;100557;1342;22514;-38
2022/10/16 10:33:07;;;;;;;6.30;5.70;;;;;;;18.97;81.45;99722.08;100653;1334;24300;-38
2022/10/16 10:35:40;;;;;;;18.20;8.20;;;;;;;19.02;80.77;99721.63;100657;1341;24300;-35
2022/10/16 10:38:12;;;;;;;10.60;6.80;;;;;;;19.00;79.77;99715.21;100712;1342;22517;-35
2022/10/16 10:40:40;;;;;;;9.00;8.00;;;;;;;18.98;79.73;99715.66;100515;1341;22493;-33
2022/10/16 10:43:10;;;;;;;8.90;7.40;;;;;;;18.91;80.41;99714.45;100748;1341;22935;-34
2022/10/16 10:45:43;;;;;;;9.00;7.70;;;;;;;18.97;79.65;99710.73;100663;1334;24351;-37
2022/10/16 10:48:14;;;;;;;6.20;4.30;;;;;;;18.96;79.49;99703.64;100692;1334;22530;-36
2022/10/16 10:50:45;;;;;;;17.90;7.40;;;;;;;18.90;80.97;99702.35;100648;1340;23306;-35
2022/10/16 10:53:16;;;;;;;16.60;6.80;;;;;;;18.96;80.87;99702.85;100659;1341;23087;-35
2022/10/16 10:55:45;;;;;;;6.60;6.00;;;;;;;19.02;79.72;99707.70;100640;1325;22483;-35
2022/10/16 10:58:18;;;;;;;9.60;7.70;;;;;;;18.98;79.29;99705.15;100739;1341;23201;-34
2022/10/16 11:00:58;;;;;;;6.40;5.70;;;;;;;18.95;79.43;99704.23;100770;1342;24333;-34
2022/10/16 11:03:42;;;;;;;8.80;7.40;;;;;;;18.93;80.10;99707.23;100762;1324;24855;-38
2022/10/16 11:06:11;;;;;;;14.80;8.80;;;;;;;19.11;79.90;99716.29;100730;1341;22863;-37